createdAt,value
2022-08-25T00:00:22.173Z,18.90
2022-08-25T00:02:55.639Z,18.90
2022-08-25T00:05:27.741Z,18.90
2022-08-25T00:07:57.688Z,18.90
2022-08-25T00:10:25.828Z,18.80
2022-08-25T00:12:54.469Z,18.80
2022-08-25T00:15:23.585Z,18.90
2022-08-25T00:17:52.905Z,18.80
2022-08-25T00:20:21.080Z,18.80
2022-08-25T00:22:49.363Z,18.80
2022-08-25T00:25:17.925Z,18.80
2022-08-25T00:27:47.301Z,18.70
2022-08-25T00:30:16.726Z,18.60
2022-08-25T00:32:52.518Z,18.60
2022-08-25T00:35:26.931Z,18.50
2022-08-25T00:37:55.002Z,18.50
2022-08-25T00:40:23.494Z,18.40
2022-08-25T00:42:51.608Z,18.40
2022-08-25T00:45:20.129Z,18.40
2022-08-25T00:47:48.384Z,18.40
2022-08-25T00:50:17.431Z,18.40
2022-08-25T00:52:51.959Z,18.50
2022-08-25T00:55:24.496Z,18.40
2022-08-25T00:57:56.953Z,18.30
2022-08-25T01:00:29.268Z,18.30
2022-08-25T01:02:57.870Z,18.10
2022-08-25T01:05:27.755Z,18.10
2022-08-25T01:08:02.757Z,18.10
2022-08-25T01:10:32.047Z,18.10
2022-08-25T01:13:06.296Z,18.20
2022-08-25T01:15:38.485Z,18.20
2022-08-25T01:18:07.345Z,18.20
2022-08-25T01:20:35.612Z,18.30
2022-08-25T01:23:05.146Z,18.20
2022-08-25T01:25:44.610Z,18.30
2022-08-25T01:28:13.180Z,18.40
2022-08-25T01:30:41.858Z,18.50
2022-08-25T01:33:15.110Z,18.60
2022-08-25T01:35:43.089Z,18.60
2022-08-25T01:38:12.843Z,18.80
2022-08-25T01:40:41.601Z,18.80
2022-08-25T01:43:18.596Z,18.80
2022-08-25T01:45:48.721Z,18.90
2022-08-25T01:48:17.365Z,18.90
2022-08-25T01:50:45.332Z,18.90
2022-08-25T01:53:22.518Z,18.90
2022-08-25T01:55:55.555Z,18.90
2022-08-25T01:58:27.272Z,18.90
2022-08-25T02:00:57.246Z,18.80
2022-08-25T02:03:26.590Z,18.70
2022-08-25T02:05:56.224Z,18.60
2022-08-25T02:08:26.569Z,18.40
2022-08-25T02:10:56.346Z,18.30
2022-08-25T02:13:31.154Z,18.30
2022-08-25T02:16:02.871Z,18.40
2022-08-25T02:18:31.250Z,18.40
2022-08-25T02:20:59.171Z,18.40
2022-08-25T02:23:29.145Z,18.20
2022-08-25T02:25:58.281Z,18.10
2022-08-25T02:28:26.944Z,18.00
2022-08-25T02:31:01.372Z,17.70
2022-08-25T02:33:30.262Z,17.70
2022-08-25T02:36:00.227Z,17.70
2022-08-25T02:38:30.430Z,17.70
2022-08-25T02:40:59.020Z,17.80
2022-08-25T02:43:28.215Z,17.80
2022-08-25T02:45:56.640Z,17.90
2022-08-25T02:48:24.928Z,17.90
2022-08-25T02:50:54.283Z,17.80
2022-08-25T02:53:23.266Z,17.80
2022-08-25T02:55:52.873Z,17.70
2022-08-25T02:58:21.209Z,17.70
2022-08-25T03:00:50.453Z,17.60
2022-08-25T03:03:19.345Z,17.40
2022-08-25T03:05:47.993Z,17.40
2022-08-25T03:08:16.355Z,17.30
2022-08-25T03:10:46.011Z,17.30
2022-08-25T03:13:17.041Z,17.30
2022-08-25T03:15:45.822Z,17.30
2022-08-25T03:18:14.061Z,17.30
2022-08-25T03:20:44.137Z,17.40
2022-08-25T03:23:12.092Z,17.30
2022-08-25T03:26:00.634Z,17.40
2022-08-25T03:28:33.147Z,17.40
2022-08-25T03:31:02.407Z,17.40
2022-08-25T03:33:32.095Z,17.50
2022-08-25T03:36:00.630Z,17.40
2022-08-25T03:38:29.041Z,17.40
2022-08-25T03:40:57.075Z,17.40
2022-08-25T03:43:24.977Z,17.20
2022-08-25T03:45:54.297Z,17.10
2022-08-25T03:48:24.423Z,16.90
2022-08-25T03:50:54.351Z,16.80
2022-08-25T03:53:23.933Z,16.70
2022-08-25T03:55:51.843Z,16.70
2022-08-25T03:58:19.773Z,16.70
2022-08-25T04:00:47.790Z,16.70
2022-08-25T04:03:18.918Z,16.70
2022-08-25T04:05:47.363Z,16.80
2022-08-25T04:08:15.345Z,16.80
2022-08-25T04:10:43.279Z,16.90
2022-08-25T04:13:12.236Z,16.90
2022-08-25T04:15:43.655Z,17.00
2022-08-25T04:18:13.310Z,17.10
2022-08-25T04:20:46.518Z,17.20
2022-08-25T04:23:14.802Z,17.20
2022-08-25T04:25:43.183Z,17.30
2022-08-25T04:28:14.315Z,17.40
2022-08-25T04:30:43.761Z,17.40
2022-08-25T04:33:11.716Z,17.50
2022-08-25T04:35:41.159Z,17.50
2022-08-25T04:38:10.484Z,17.60
2022-08-25T04:40:38.369Z,17.60
2022-08-25T04:43:06.611Z,17.70
2022-08-25T04:45:38.705Z,17.70
2022-08-25T04:48:07.537Z,17.70
2022-08-25T04:50:39.005Z,17.70
2022-08-25T04:53:07.000Z,17.70
2022-08-25T04:55:41.514Z,17.60
2022-08-25T04:58:14.647Z,17.70
2022-08-25T05:00:46.569Z,17.70
2022-08-25T05:03:14.760Z,17.60
2022-08-25T05:05:42.698Z,17.70
2022-08-25T05:08:11.236Z,17.70
2022-08-25T05:10:43.116Z,17.80
2022-08-25T05:13:11.973Z,17.80
2022-08-25T05:15:51.750Z,17.90
2022-08-25T05:18:20.191Z,18.00
2022-08-25T05:20:48.107Z,18.10
2022-08-25T05:23:16.431Z,18.10
2022-08-25T05:25:45.979Z,18.20
2022-08-25T05:28:14.768Z,18.30
2022-08-25T05:30:44.309Z,18.30
2022-08-25T05:33:13.696Z,18.40
2022-08-25T05:35:41.586Z,18.40
2022-08-25T05:38:15.301Z,18.50
2022-08-25T05:40:45.011Z,18.60
2022-08-25T05:43:14.690Z,18.60
2022-08-25T05:45:42.894Z,18.70
2022-08-25T05:48:10.951Z,18.80
2022-08-25T05:50:39.144Z,18.90
2022-08-25T05:53:07.075Z,19.00
2022-08-25T05:55:35.681Z,19.10
2022-08-25T05:58:05.185Z,19.20
2022-08-25T06:00:33.533Z,19.30
2022-08-25T06:03:00.471Z,19.40
2022-08-25T06:05:29.285Z,19.50
2022-08-25T06:07:57.261Z,19.60
2022-08-25T06:10:25.159Z,19.70
2022-08-25T06:12:53.096Z,19.80
2022-08-25T06:15:26.476Z,19.90
2022-08-25T06:18:05.469Z,20.00
2022-08-25T06:20:33.529Z,20.10
2022-08-25T06:23:01.584Z,20.30
2022-08-25T06:25:32.632Z,20.30
2022-08-25T06:28:00.567Z,20.40
2022-08-25T06:30:29.948Z,20.50
2022-08-25T06:32:58.186Z,20.60
2022-08-25T06:35:26.291Z,20.70
2022-08-25T06:37:54.709Z,20.80
2022-08-25T06:40:23.083Z,20.80
2022-08-25T06:42:51.027Z,20.90
2022-08-25T06:45:19.413Z,21.00
2022-08-25T06:47:48.878Z,21.00
2022-08-25T06:50:16.822Z,21.10
2022-08-25T06:52:44.742Z,21.20
2022-08-25T06:55:12.648Z,21.30
2022-08-25T06:57:40.840Z,21.40
2022-08-25T07:00:10.800Z,21.50
2022-08-25T07:02:40.358Z,21.60
2022-08-25T07:05:13.250Z,21.60
2022-08-25T07:07:43.634Z,21.70
2022-08-25T07:10:13.125Z,21.80
2022-08-25T07:12:41.543Z,21.90
2022-08-25T07:15:19.846Z,22.00
2022-08-25T07:17:49.103Z,22.10
2022-08-25T07:20:19.624Z,22.30
2022-08-25T07:22:48.070Z,22.40
2022-08-25T07:25:17.884Z,22.50
2022-08-25T07:27:46.376Z,22.70
2022-08-25T07:30:15.168Z,22.90
2022-08-25T07:32:43.393Z,23.00
2022-08-25T07:35:19.204Z,23.20
2022-08-25T07:37:51.147Z,23.30
2022-08-25T07:40:22.463Z,23.50
2022-08-25T07:42:51.550Z,23.60
2022-08-25T07:45:21.173Z,23.70
2022-08-25T07:47:51.483Z,23.80
2022-08-25T07:50:20.087Z,23.90
2022-08-25T07:52:55.314Z,24.20
2022-08-25T07:55:24.524Z,24.30
2022-08-25T07:57:55.929Z,24.50
2022-08-25T08:00:27.420Z,24.90
2022-08-25T08:02:55.424Z,25.20
2022-08-25T08:05:23.974Z,25.60
2022-08-25T08:07:53.711Z,26.00
2022-08-25T08:10:48.035Z,26.60
2022-08-25T08:13:13.411Z,27.10
2022-08-25T08:15:46.119Z,27.50
2022-08-25T08:18:14.152Z,28.00
2022-08-25T08:20:45.501Z,28.60
2022-08-25T08:23:15.146Z,29.10
2022-08-25T08:25:43.211Z,29.20
2022-08-25T08:28:11.307Z,29.00
2022-08-25T08:30:39.388Z,29.00
2022-08-25T08:33:11.890Z,29.10
2022-08-25T08:35:40.323Z,29.40
2022-08-25T08:38:14.987Z,29.70
2022-08-25T08:41:13.178Z,29.80
2022-08-25T08:43:44.713Z,29.90
2022-08-25T08:46:12.960Z,29.80
2022-08-25T08:49:01.206Z,30.20
2022-08-25T08:51:34.304Z,30.40
2022-08-25T08:54:15.126Z,30.30
2022-08-25T08:56:49.005Z,30.20
2022-08-25T08:59:21.647Z,30.10
2022-08-25T09:01:56.529Z,30.10
2022-08-25T09:04:30.451Z,30.00
2022-08-25T09:07:00.646Z,30.20
2022-08-25T09:09:35.819Z,30.70
2022-08-25T09:12:12.779Z,31.00
2022-08-25T09:14:55.630Z,31.20
2022-08-25T09:17:35.835Z,31.40
2022-08-25T09:20:25.142Z,31.50
2022-08-25T09:22:58.754Z,31.80
2022-08-25T09:25:52.272Z,32.40
2022-08-25T09:28:31.542Z,32.90
2022-08-25T09:31:02.065Z,33.20
2022-08-25T09:33:35.360Z,33.30
2022-08-25T09:36:09.043Z,33.60
2022-08-25T09:38:37.561Z,34.10
2022-08-25T09:41:06.583Z,34.10
2022-08-25T09:43:38.484Z,33.60
2022-08-25T09:46:13.342Z,33.40
2022-08-25T09:48:48.461Z,33.10
2022-08-25T09:51:29.176Z,32.80
2022-08-25T09:54:00.576Z,32.70
2022-08-25T09:56:31.789Z,32.40
2022-08-25T09:59:21.273Z,32.20
2022-08-25T10:02:04.716Z,32.10
2022-08-25T10:04:36.865Z,31.80
2022-08-25T10:07:21.615Z,31.80
2022-08-25T10:09:54.705Z,31.70
2022-08-25T10:12:27.980Z,31.20
2022-08-25T10:14:57.923Z,31.10
2022-08-25T10:17:29.891Z,31.10
2022-08-25T10:20:17.160Z,31.10
2022-08-25T10:22:48.260Z,31.40
2022-08-25T10:25:23.826Z,31.30
2022-08-25T10:28:05.990Z,31.50
2022-08-25T10:30:41.292Z,31.90
2022-08-25T10:33:21.049Z,32.00
2022-08-25T10:35:58.307Z,31.90
2022-08-25T10:38:36.920Z,31.80
2022-08-25T10:41:23.258Z,32.10
2022-08-25T10:43:58.578Z,32.30
2022-08-25T10:46:38.260Z,32.40
2022-08-25T10:49:09.708Z,32.60
2022-08-25T10:51:45.510Z,32.40
2022-08-25T10:54:27.972Z,32.00
2022-08-25T10:57:07.130Z,31.60
2022-08-25T10:59:56.377Z,31.50
2022-08-25T11:02:58.195Z,31.70
2022-08-25T11:05:31.890Z,32.30
2022-08-25T11:08:08.915Z,32.80
2022-08-25T11:10:43.649Z,33.40
2022-08-25T11:13:18.790Z,34.00
2022-08-25T11:16:16.051Z,34.20
2022-08-25T11:18:51.488Z,34.40
2022-08-25T11:21:27.187Z,35.00
2022-08-25T11:24:05.679Z,35.70
2022-08-25T11:26:37.398Z,36.30
2022-08-25T11:29:13.445Z,36.20
2022-08-25T11:31:52.158Z,36.20
2022-08-25T11:34:23.495Z,36.20
2022-08-25T11:36:55.831Z,35.50
2022-08-25T11:39:37.298Z,35.10
2022-08-25T11:42:18.004Z,34.50
2022-08-25T11:44:53.759Z,34.00
2022-08-25T11:47:36.994Z,33.60
2022-08-25T11:50:09.903Z,33.20
2022-08-25T11:52:53.897Z,33.60
2022-08-25T11:55:27.287Z,34.30
2022-08-25T11:58:21.527Z,34.50
2022-08-25T12:00:50.363Z,34.10
2022-08-25T12:03:53.325Z,34.00
2022-08-25T12:06:29.467Z,34.00
2022-08-25T12:09:17.515Z,33.90
2022-08-25T12:11:55.645Z,34.00
2022-08-25T12:14:45.525Z,34.00
2022-08-25T12:17:24.129Z,33.70
2022-08-25T12:20:00.818Z,33.60
2022-08-25T12:22:51.562Z,33.60
2022-08-25T12:25:43.689Z,33.70
2022-08-25T12:28:35.054Z,33.80
2022-08-25T12:31:09.757Z,33.90
2022-08-25T12:33:52.049Z,34.20
2022-08-25T12:36:38.344Z,34.40
2022-08-25T12:39:42.711Z,34.10
2022-08-25T12:42:26.132Z,33.80
2022-08-25T12:45:15.989Z,33.50
2022-08-25T12:47:47.440Z,33.50
2022-08-25T12:50:37.330Z,33.90
2022-08-25T12:53:12.233Z,34.40
2022-08-25T12:55:44.979Z,34.40
2022-08-25T12:58:14.486Z,34.10
2022-08-25T13:01:11.051Z,34.00
2022-08-25T13:04:12.710Z,33.80
2022-08-25T13:06:54.818Z,34.00
2022-08-25T13:10:00.078Z,33.70
2022-08-25T13:12:34.882Z,33.60
2022-08-25T13:15:04.833Z,33.30
2022-08-25T13:17:35.526Z,33.60
2022-08-25T13:20:14.619Z,34.00
2022-08-25T13:22:46.107Z,33.80
2022-08-25T13:25:18.162Z,33.80
2022-08-25T13:27:53.882Z,33.60
2022-08-25T13:30:29.785Z,33.60
2022-08-25T13:32:58.699Z,33.90
2022-08-25T13:35:32.110Z,34.20
2022-08-25T13:38:13.492Z,34.20
2022-08-25T13:40:43.098Z,33.80
2022-08-25T13:43:15.097Z,33.30
2022-08-25T13:45:46.476Z,33.20
2022-08-25T13:48:32.012Z,33.30
2022-08-25T13:51:09.851Z,33.40
2022-08-25T13:53:39.925Z,33.70
2022-08-25T13:56:08.676Z,33.80
2022-08-25T13:58:44.771Z,34.00
2022-08-25T14:01:45.198Z,34.40
2022-08-25T14:04:33.075Z,34.50
2022-08-25T14:07:11.862Z,34.50
2022-08-25T14:09:46.463Z,34.60
2022-08-25T14:12:32.964Z,34.50
2022-08-25T14:15:04.811Z,34.50
2022-08-25T14:17:39.144Z,34.20
2022-08-25T14:20:17.382Z,34.10
2022-08-25T14:22:45.412Z,34.00
2022-08-25T14:25:13.721Z,34.00
2022-08-25T14:28:03.536Z,33.90
2022-08-25T14:30:34.428Z,33.60
2022-08-25T14:33:04.607Z,33.10
2022-08-25T14:35:34.982Z,33.00
2022-08-25T14:38:08.393Z,32.70
2022-08-25T14:40:36.506Z,32.50
2022-08-25T14:43:05.916Z,32.40
2022-08-25T14:45:40.129Z,32.30
2022-08-25T14:48:11.436Z,32.10
2022-08-25T14:50:42.022Z,31.90
2022-08-25T14:53:12.340Z,31.90
2022-08-25T14:55:40.578Z,32.00
2022-08-25T14:58:09.283Z,32.00
2022-08-25T15:00:42.133Z,32.10
2022-08-25T15:03:14.451Z,32.20
2022-08-25T15:05:42.990Z,32.30
2022-08-25T15:08:33.107Z,32.40
2022-08-25T15:11:01.928Z,32.30
2022-08-25T15:13:37.061Z,32.20
2022-08-25T15:16:05.731Z,32.30
2022-08-25T15:18:35.111Z,32.40
2022-08-25T15:21:04.446Z,32.30
2022-08-25T15:23:32.568Z,32.10
2022-08-25T15:26:03.519Z,31.90
2022-08-25T15:28:33.306Z,31.60
2022-08-25T15:31:01.576Z,31.50
2022-08-25T15:33:30.662Z,31.40
2022-08-25T15:36:00.111Z,31.40
2022-08-25T15:38:28.137Z,31.40
2022-08-25T15:40:57.497Z,31.50
2022-08-25T15:43:26.085Z,31.60
2022-08-25T15:45:54.060Z,31.50
2022-08-25T15:48:24.542Z,31.50
2022-08-25T15:50:55.910Z,31.50
2022-08-25T15:53:26.479Z,31.60
2022-08-25T15:55:55.263Z,31.50
2022-08-25T15:58:23.229Z,31.40
2022-08-25T16:00:56.485Z,31.40
2022-08-25T16:03:25.132Z,31.40
2022-08-25T16:05:53.052Z,31.40
2022-08-25T16:08:21.289Z,31.50
2022-08-25T16:10:50.749Z,31.50
2022-08-25T16:13:19.803Z,31.50
2022-08-25T16:15:54.224Z,31.40
2022-08-25T16:18:22.670Z,31.50
2022-08-25T16:20:51.383Z,31.50
2022-08-25T16:23:20.549Z,31.30
2022-08-25T16:25:51.793Z,31.30
2022-08-25T16:28:20.585Z,31.20
2022-08-25T16:30:53.133Z,31.00
2022-08-25T16:33:21.985Z,30.90
2022-08-25T16:35:49.965Z,30.90
2022-08-25T16:38:18.364Z,30.80
2022-08-25T16:40:47.353Z,30.70
2022-08-25T16:43:17.656Z,30.70
2022-08-25T16:45:46.182Z,30.70
2022-08-25T16:48:14.494Z,30.60
2022-08-25T16:50:42.772Z,30.60
2022-08-25T16:53:31.220Z,30.60
2022-08-25T16:56:03.010Z,30.50
2022-08-25T16:58:34.240Z,30.50
2022-08-25T17:01:07.406Z,30.50
2022-08-25T17:03:38.438Z,30.50
2022-08-25T17:06:11.983Z,30.50
2022-08-25T17:08:41.794Z,30.40
2022-08-25T17:11:13.887Z,30.30
2022-08-25T17:13:45.145Z,30.30
2022-08-25T17:16:14.960Z,30.20
2022-08-25T17:18:48.024Z,30.10
2022-08-25T17:21:23.880Z,30.00
2022-08-25T17:23:52.936Z,29.90
2022-08-25T17:26:27.885Z,29.80
2022-08-25T17:28:59.353Z,29.80
2022-08-25T17:31:28.839Z,29.80
2022-08-25T17:33:58.110Z,29.80
2022-08-25T17:36:26.860Z,29.80
2022-08-25T17:38:56.771Z,29.70
2022-08-25T17:41:25.255Z,29.60
2022-08-25T17:43:53.197Z,29.60
2022-08-25T17:46:23.925Z,29.50
2022-08-25T17:48:52.562Z,29.50
2022-08-25T17:51:20.716Z,29.40
2022-08-25T17:53:52.597Z,29.40
2022-08-25T17:56:23.280Z,29.40
2022-08-25T17:58:55.036Z,29.30
2022-08-25T18:01:26.693Z,29.30
2022-08-25T18:03:55.031Z,29.20
2022-08-25T18:06:25.949Z,29.00
2022-08-25T18:08:58.694Z,28.90
2022-08-25T18:11:28.667Z,28.80
2022-08-25T18:13:57.217Z,28.60
2022-08-25T18:16:27.415Z,28.60
2022-08-25T18:18:57.162Z,28.40
2022-08-25T18:21:25.612Z,28.30
2022-08-25T18:23:58.785Z,28.20
2022-08-25T18:26:26.704Z,28.20
2022-08-25T18:28:55.735Z,28.20
2022-08-25T18:31:23.953Z,28.00
2022-08-25T18:33:53.334Z,28.00
2022-08-25T18:36:21.836Z,27.90
2022-08-25T18:39:07.378Z,27.90
2022-08-25T18:41:37.541Z,27.80
2022-08-25T18:44:06.528Z,27.80
2022-08-25T18:46:34.800Z,27.80
2022-08-25T18:49:05.319Z,27.80
2022-08-25T18:51:33.782Z,27.80
2022-08-25T18:54:01.771Z,27.80
2022-08-25T18:56:30.507Z,27.70
2022-08-25T18:58:58.515Z,27.70
2022-08-25T19:01:26.551Z,27.60
2022-08-25T19:03:56.739Z,27.60
2022-08-25T19:06:26.382Z,27.60
2022-08-25T19:08:54.462Z,27.50
2022-08-25T19:11:22.833Z,27.50
2022-08-25T19:13:51.460Z,27.40
2022-08-25T19:16:35.501Z,27.30
2022-08-25T19:19:06.580Z,27.30
2022-08-25T19:21:38.576Z,27.20
2022-08-25T19:24:07.436Z,27.10
2022-08-25T19:26:36.930Z,27.10
2022-08-25T19:29:08.906Z,27.10
2022-08-25T19:31:39.275Z,27.00
2022-08-25T19:34:08.601Z,27.00
2022-08-25T19:36:37.954Z,26.90
2022-08-25T19:39:08.267Z,26.80
2022-08-25T19:41:36.564Z,26.80
2022-08-25T19:44:05.471Z,26.70
2022-08-25T19:46:36.262Z,26.60
2022-08-25T19:49:08.384Z,26.50
2022-08-25T19:51:39.605Z,26.50
2022-08-25T19:54:10.154Z,26.40
2022-08-25T19:56:53.821Z,26.40
2022-08-25T19:59:24.630Z,26.20
2022-08-25T20:01:52.759Z,26.20
2022-08-25T20:04:21.249Z,26.10
2022-08-25T20:06:55.586Z,26.10
2022-08-25T20:09:38.869Z,26.00
2022-08-25T20:12:10.304Z,26.00
2022-08-25T20:14:38.705Z,25.90
2022-08-25T20:17:23.200Z,25.90
2022-08-25T20:19:54.035Z,25.80
2022-08-25T20:22:26.407Z,25.70
2022-08-25T20:24:55.893Z,25.70
2022-08-25T20:27:27.395Z,25.60
2022-08-25T20:29:55.520Z,25.50
2022-08-25T20:32:24.730Z,25.40
2022-08-25T20:34:55.689Z,25.30
2022-08-25T20:37:25.683Z,25.30
2022-08-25T20:39:54.110Z,25.20
2022-08-25T20:42:22.406Z,25.10
2022-08-25T20:44:50.640Z,25.10
2022-08-25T20:47:20.617Z,25.00
2022-08-25T20:49:50.188Z,25.00
2022-08-25T20:52:19.664Z,25.00
2022-08-25T20:54:51.257Z,25.00
2022-08-25T20:57:24.505Z,24.90
2022-08-25T20:59:54.369Z,24.90
2022-08-25T21:02:24.147Z,24.80
2022-08-25T21:04:53.113Z,24.70
2022-08-25T21:07:23.669Z,24.60
2022-08-25T21:09:53.629Z,24.50
2022-08-25T21:12:22.052Z,24.50
2022-08-25T21:14:50.650Z,24.50
2022-08-25T21:17:19.255Z,24.50
2022-08-25T21:22:16.435Z,24.40
2022-08-25T21:24:44.737Z,24.40
2022-08-25T21:27:14.475Z,24.40
2022-08-25T21:29:44.735Z,24.40
2022-08-25T21:32:22.373Z,24.40
2022-08-25T21:34:53.372Z,24.40
2022-08-25T21:37:21.611Z,24.40
2022-08-25T21:39:49.710Z,24.30
2022-08-25T21:42:19.367Z,24.30
2022-08-25T21:44:47.543Z,24.30
2022-08-25T21:47:15.800Z,24.30
2022-08-25T21:49:49.714Z,24.30
2022-08-25T21:52:17.904Z,24.30
2022-08-25T21:54:45.996Z,24.20
2022-08-25T21:57:13.911Z,24.20
2022-08-25T21:59:43.489Z,24.20
2022-08-25T22:02:14.019Z,24.10
2022-08-25T22:04:42.995Z,24.10
2022-08-25T22:07:11.923Z,24.00
2022-08-25T22:09:41.072Z,24.00
2022-08-25T22:12:10.016Z,24.00
2022-08-25T22:14:39.085Z,23.90
2022-08-25T22:17:13.941Z,23.90
2022-08-25T22:19:45.614Z,23.80
2022-08-25T22:22:15.717Z,23.80
2022-08-25T22:24:48.947Z,23.80
2022-08-25T22:27:17.167Z,23.70
2022-08-25T22:29:45.233Z,23.70
2022-08-25T22:32:14.826Z,23.70
2022-08-25T22:34:43.579Z,23.60
2022-08-25T22:37:11.921Z,23.50
2022-08-25T22:39:40.453Z,23.50
2022-08-25T22:42:08.626Z,23.40
2022-08-25T22:44:39.590Z,23.40
2022-08-25T22:47:12.308Z,23.30
2022-08-25T22:49:41.649Z,23.10
2022-08-25T22:52:12.896Z,23.00
2022-08-25T22:54:42.283Z,22.90
2022-08-25T22:57:10.767Z,22.80
2022-08-25T22:59:39.182Z,22.80
2022-08-25T23:02:07.290Z,22.80
2022-08-25T23:04:36.841Z,22.80
2022-08-25T23:07:11.307Z,22.70
2022-08-25T23:09:39.606Z,22.70
2022-08-25T23:12:08.128Z,22.70
2022-08-25T23:14:44.170Z,22.60
2022-08-25T23:17:12.352Z,22.50
2022-08-25T23:19:40.569Z,22.50
2022-08-25T23:22:09.397Z,22.50
2022-08-25T23:24:39.489Z,22.50
2022-08-25T23:27:11.876Z,22.50
2022-08-25T23:29:42.259Z,22.40
2022-08-25T23:32:13.895Z,22.40
2022-08-25T23:34:43.915Z,22.30
2022-08-25T23:37:18.823Z,22.20
2022-08-25T23:39:49.894Z,22.00
2022-08-25T23:42:19.082Z,21.80
2022-08-25T23:44:47.212Z,21.70
2022-08-25T23:47:15.174Z,21.60
2022-08-25T23:49:43.223Z,21.50
2022-08-25T23:52:11.178Z,21.40
2022-08-25T23:54:40.533Z,21.30
2022-08-25T23:57:08.809Z,21.30
2022-08-25T23:59:38.313Z,21.10
